Rochester, New Hampshire
Current Conditions -  °F | °C
As of 10:51 PM on Tuesday 27 Jan 2015 (Local Time) from KDAW Reporting Station
Light Snow Light Snow  
Wind Chill: -1°   Ceiling: 2100
Heat Index: 15°   Visibility: 1.5mi
Dew Point: 10°   Wind: 17mph
Humidity: 80%   Direction: 330°NNW
Pressure: 29.61"   Gusts: 26mph
Location:  43.31°N, 70.98°W
Report Text: KDAW 280351Z AUTO 33015G23KT 1 1/2SM -SN OVC021 M09/M12 A2961 RMK AO2 PK WND 33029/0322 SLP030 P0002 T10941122
Loading
Personal Weather Stations






























Interactive Weather Map New forecast layout! Learn more

10-Day Weather Forecast

Advertisements
Track Severe Weather on mobile